RESQ04 ENZV-ENBX
Flight info
| Callsign | RESQ04 |
|---|---|
| Flight time | N/A |
| Altitude | 2000 |
| Route | ENZV1Z DCT VEVEP EDV OL620 BR702 ENBX |
| Aircraft | S76/M-V/N |
Departure
| Time | 2026-04-29 19:28 |
|---|---|
| Airport | Stavanger Airport, Sola (ENZV) |
Arrival
| Time | N/A |
|---|---|
| Airport | Haukeland Universitetssykehus Heliport (ENBX) |
| Time | Latitude | Longitude | Altitude | Speed | Heading |
|---|---|---|---|---|---|
| 2026-04-29 18:58 | 58.87997 | 5.64092 | 31 ft | 0 kts | 183° |
| 2026-04-29 19:22 | 58.87997 | 5.64093 | 31 ft | 0 kts | 178° |
| 2026-04-29 19:22 | 58.87986 | 5.64083 | 31 ft | 2 kts | 229° |
| 2026-04-29 19:23 | 58.87965 | 5.64042 | 31 ft | 5 kts | 216° |
| 2026-04-29 19:23 | 58.87926 | 5.64001 | 31 ft | 4 kts | 202° |
| 2026-04-29 19:23 | 58.87890 | 5.63969 | 32 ft | 8 kts | 197° |
| 2026-04-29 19:23 | 58.87859 | 5.63950 | 32 ft | 4 kts | 196° |
| 2026-04-29 19:24 | 58.87858 | 5.63949 | 32 ft | 0 kts | 197° |
| 2026-04-29 19:24 | 58.87858 | 5.63952 | 32 ft | 1 kts | 156° |
| 2026-04-29 19:24 | 58.87846 | 5.63945 | 32 ft | 4 kts | 201° |
| 2026-04-29 19:24 | 58.87800 | 5.63910 | 32 ft | 10 kts | 198° |
| 2026-04-29 19:25 | 58.87754 | 5.63878 | 32 ft | 8 kts | 198° |
| 2026-04-29 19:25 | 58.87713 | 5.63851 | 33 ft | 6 kts | 198° |
| 2026-04-29 19:25 | 58.87680 | 5.63829 | 35 ft | 1 kts | 221° |
| 2026-04-29 19:25 | 58.87677 | 5.63815 | 35 ft | 2 kts | 263° |
| 2026-04-29 19:26 | 58.87678 | 5.63789 | 35 ft | 2 kts | 280° |
| 2026-04-29 19:26 | 58.87685 | 5.63759 | 49 ft | 10 kts | 284° |
| 2026-04-29 19:26 | 58.87761 | 5.63327 | 69 ft | 53 kts | 288° |
| 2026-04-29 19:26 | 58.87901 | 5.62486 | 109 ft | 75 kts | 287° |
| 2026-04-29 19:27 | 58.88079 | 5.61419 | 144 ft | 91 kts | 285° |
| 2026-04-29 19:27 | 58.88295 | 5.60224 | 226 ft | 97 kts | 283° |
| 2026-04-29 19:27 | 58.88514 | 5.58955 | 303 ft | 100 kts | 283° |
| 2026-04-29 19:27 | 58.88740 | 5.57754 | 388 ft | 99 kts | 285° |
| 2026-04-29 19:28 | 58.88952 | 5.56475 | 383 ft | 107 kts | 281° |
| 2026-04-29 19:28 | 58.89216 | 5.55133 | 386 ft | 105 kts | 285° |
| 2026-04-29 19:28 | 58.89463 | 5.53953 | 738 ft | 70 kts | 279° |
| 2026-04-29 19:28 | 58.89545 | 5.53236 | 1180 ft | 47 kts | 265° |
| 2026-04-29 19:29 | 58.89582 | 5.52658 | 1436 ft | 37 kts | 255° |
| 2026-04-29 19:29 | 58.89644 | 5.52444 | 1662 ft | 9 kts | 273° |
| 2026-04-29 19:29 | 58.89746 | 5.52707 | 1705 ft | 44 kts | 268° |
| 2026-04-29 19:29 | 58.89685 | 5.53220 | 1902 ft | 30 kts | 353° |
| 2026-04-29 19:30 | 58.89796 | 5.53548 | 2043 ft | 30 kts | 338° |
| 2026-04-29 19:30 | 58.90066 | 5.53300 | 2111 ft | 60 kts | 301° |
| 2026-04-29 19:30 | 58.90271 | 5.52458 | 2198 ft | 78 kts | 285° |
| 2026-04-29 19:30 | 58.90434 | 5.51298 | 2153 ft | 98 kts | 282° |
| 2026-04-29 19:31 | 58.90496 | 5.49945 | 2179 ft | 108 kts | 270° |
| 2026-04-29 19:31 | 58.90494 | 5.48395 | 2047 ft | 118 kts | 272° |
| 2026-04-29 19:31 | 58.90611 | 5.46872 | 2020 ft | 119 kts | 287° |
| 2026-04-29 19:31 | 58.90809 | 5.45259 | 1908 ft | 126 kts | 278° |
| 2026-04-29 19:32 | 58.90927 | 5.43590 | 1852 ft | 129 kts | 271° |
| 2026-04-29 19:32 | 58.91034 | 5.41862 | 1779 ft | 132 kts | 266° |
| 2026-04-29 19:32 | 58.91009 | 5.40044 | 1683 ft | 137 kts | 261° |
| 2026-04-29 19:32 | 58.90920 | 5.38254 | 1699 ft | 128 kts | 253° |
| 2026-04-29 19:33 | 58.90749 | 5.36776 | 2049 ft | 103 kts | 247° |
| 2026-04-29 19:33 | 58.90573 | 5.35446 | 2202 ft | 97 kts | 247° |
| 2026-04-29 19:33 | 58.90430 | 5.34298 | 2517 ft | 63 kts | 235° |
| 2026-04-29 19:33 | 58.90229 | 5.33275 | 2353 ft | 112 kts | 230° |
| 2026-04-29 19:34 | 58.89805 | 5.31798 | 2108 ft | 128 kts | 227° |
| 2026-04-29 19:34 | 58.89406 | 5.30257 | 1875 ft | 128 kts | 251° |
| 2026-04-29 19:34 | 58.89359 | 5.28628 | 1828 ft | 114 kts | 258° |
| 2026-04-29 19:34 | 58.89274 | 5.27192 | 1856 ft | 108 kts | 239° |
| 2026-04-29 19:35 | 58.89019 | 5.25716 | 1692 ft | 112 kts | 236° |
| 2026-04-29 19:35 | 58.88628 | 5.24330 | 1491 ft | 129 kts | 222° |
| 2026-04-29 19:35 | 58.87950 | 5.23057 | 1162 ft | 141 kts | 218° |
| 2026-04-29 19:35 | 58.87344 | 5.21689 | 1112 ft | 129 kts | 227° |
| 2026-04-29 19:36 | 58.87130 | 5.20125 | 908 ft | 118 kts | 274° |
| 2026-04-29 19:36 | 58.87522 | 5.18896 | 881 ft | 101 kts | 302° |
| 2026-04-29 19:36 | 58.87966 | 5.17887 | 893 ft | 98 kts | 289° |
| 2026-04-29 19:36 | 58.88291 | 5.16733 | 831 ft | 100 kts | 281° |
| 2026-04-29 19:37 | 58.88548 | 5.15498 | 803 ft | 99 kts | 276° |
| 2026-04-29 19:37 | 58.88729 | 5.14647 | 651 ft | 104 kts | 276° |
| 2026-04-29 19:37 | 58.89063 | 5.13012 | 645 ft | 95 kts | 276° |
| 2026-04-29 19:37 | 58.89309 | 5.11822 | 580 ft | 96 kts | 279° |
| 2026-04-29 19:38 | 58.89507 | 5.10592 | 552 ft | 90 kts | 269° |
| 2026-04-29 19:38 | 58.89632 | 5.09491 | 654 ft | 84 kts | 264° |
| 2026-04-29 19:38 | 58.89743 | 5.08344 | 601 ft | 89 kts | 268° |
| 2026-04-29 19:38 | 58.89953 | 5.07247 | 664 ft | 80 kts | 271° |
| 2026-04-29 19:39 | 58.90165 | 5.06322 | 802 ft | 71 kts | 269° |
| 2026-04-29 19:39 | 58.90396 | 5.05492 | 872 ft | 69 kts | 282° |
| 2026-04-29 19:39 | 58.90670 | 5.04594 | 807 ft | 87 kts | 270° |
| 2026-04-29 19:39 | 58.90762 | 5.03348 | 717 ft | 98 kts | 255° |
| 2026-04-29 19:40 | 58.90685 | 5.02019 | 706 ft | 98 kts | 246° |
| 2026-04-29 19:40 | 58.90605 | 5.00760 | 745 ft | 95 kts | 248° |
| 2026-04-29 19:40 | 58.90523 | 4.99534 | 807 ft | 90 kts | 242° |
| 2026-04-29 19:40 | 58.90276 | 4.98233 | 615 ft | 111 kts | 231° |
| 2026-04-29 19:41 | 58.89961 | 4.96929 | 622 ft | 108 kts | 231° |
| 2026-04-29 19:41 | 58.89623 | 4.95732 | 737 ft | 87 kts | 221° |
| 2026-04-29 19:41 | 58.89292 | 4.94648 | 726 ft | 88 kts | 221° |
| 2026-04-29 19:41 | 58.88976 | 4.93527 | 668 ft | 93 kts | 223° |
| 2026-04-29 19:42 | 58.88787 | 4.92550 | 836 ft | 82 kts | 214° |
| 2026-04-29 19:42 | 58.88668 | 4.91903 | 1018 ft | 77 kts | 225° |
| 2026-04-29 19:42 | 58.88466 | 4.90529 | 1240 ft | 81 kts | 250° |
| 2026-04-29 19:42 | 58.88619 | 4.89433 | 1338 ft | 81 kts | 276° |
| 2026-04-29 19:43 | 58.88871 | 4.88480 | 1532 ft | 79 kts | 275° |
| 2026-04-29 19:43 | 58.89063 | 4.87361 | 1575 ft | 92 kts | 268° |
| 2026-04-29 19:43 | 58.89201 | 4.86161 | 1731 ft | 91 kts | 264° |
| 2026-04-29 19:43 | 58.89301 | 4.84915 | 1824 ft | 97 kts | 263° |
| 2026-04-29 19:44 | 58.89371 | 4.83604 | 1907 ft | 98 kts | 258° |
| 2026-04-29 19:44 | 58.89396 | 4.82255 | 1970 ft | 103 kts | 256° |
| 2026-04-29 19:44 | 58.89369 | 4.80805 | 1989 ft | 107 kts | 253° |
| 2026-04-29 19:44 | 58.89303 | 4.79385 | 2020 ft | 109 kts | 254° |
| 2026-04-29 19:45 | 58.89306 | 4.78044 | 2155 ft | 104 kts | 255° |
| 2026-04-29 19:45 | 58.89324 | 4.76749 | 2383 ft | 78 kts | 258° |
| 2026-04-29 19:45 | 58.89325 | 4.75351 | 2048 ft | 120 kts | 257° |
| 2026-04-29 19:45 | 58.89306 | 4.73923 | 2404 ft | 97 kts | 256° |
| 2026-04-29 19:46 | 58.89308 | 4.72644 | 2547 ft | 103 kts | 257° |
| 2026-04-29 19:46 | 58.89325 | 4.71391 | 2802 ft | 88 kts | 275° |
| 2026-04-29 19:46 | 58.89288 | 4.69783 | 2285 ft | 140 kts | 256° |
| 2026-04-29 19:46 | 58.89129 | 4.67841 | 2051 ft | 151 kts | 252° |
| 2026-04-29 19:47 | 58.88880 | 4.65826 | 1884 ft | 154 kts | 249° |
| 2026-04-29 19:47 | 58.88678 | 4.63795 | 1758 ft | 153 kts | 256° |
| 2026-04-29 19:47 | 58.88533 | 4.61801 | 1792 ft | 144 kts | 255° |
| 2026-04-29 19:47 | 58.88402 | 4.59952 | 1908 ft | 134 kts | 256° |
| 2026-04-29 19:48 | 58.88398 | 4.58198 | 1994 ft | 129 kts | 266° |
| 2026-04-29 19:48 | 58.88447 | 4.57071 | 2063 ft | 125 kts | 264° |
| 2026-04-29 19:48 | 58.88480 | 4.54858 | 2227 ft | 122 kts | 259° |
| 2026-04-29 19:48 | 58.88446 | 4.53227 | 2294 ft | 123 kts | 255° |
| 2026-04-29 19:49 | 58.88297 | 4.51515 | 2196 ft | 138 kts | 247° |
| 2026-04-29 19:49 | 58.87994 | 4.49656 | 1962 ft | 151 kts | 242° |
| 2026-04-29 19:49 | 58.87556 | 4.47760 | 1790 ft | 157 kts | 237° |
| 2026-04-29 19:49 | 58.87109 | 4.45811 | 1636 ft | 158 kts | 244° |
| 2026-04-29 19:50 | 58.86877 | 4.43821 | 1637 ft | 145 kts | 261° |
| 2026-04-29 19:50 | 58.86851 | 4.42016 | 1900 ft | 122 kts | 255° |
| 2026-04-29 19:50 | 58.86751 | 4.40510 | 2202 ft | 109 kts | 246° |
| 2026-04-29 19:50 | 58.86573 | 4.39053 | 2297 ft | 114 kts | 240° |
| 2026-04-29 19:51 | 58.86283 | 4.37518 | 2199 ft | 132 kts | 238° |
| 2026-04-29 19:51 | 58.86014 | 4.35748 | 2053 ft | 140 kts | 251° |
| 2026-04-29 19:51 | 58.85907 | 4.33878 | 2023 ft | 138 kts | 253° |
| 2026-04-29 19:51 | 58.85722 | 4.32072 | 2049 ft | 136 kts | 248° |
| 2026-04-29 19:52 | 58.85591 | 4.30239 | 1983 ft | 139 kts | 256° |
| 2026-04-29 19:52 | 58.85523 | 4.28404 | 2030 ft | 134 kts | 256° |
| 2026-04-29 19:52 | 58.85451 | 4.26621 | 2083 ft | 132 kts | 255° |
| 2026-04-29 19:52 | 58.85436 | 4.24852 | 2108 ft | 132 kts | 261° |
| 2026-04-29 19:53 | 58.85459 | 4.23083 | 2130 ft | 132 kts | 262° |
| 2026-04-29 19:53 | 58.85544 | 4.21318 | 2134 ft | 132 kts | 268° |
| 2026-04-29 19:53 | 58.85672 | 4.19566 | 2140 ft | 131 kts | 268° |
| 2026-04-29 19:53 | 58.85802 | 4.17840 | 2144 ft | 132 kts | 268° |
| 2026-04-29 19:54 | 58.86076 | 4.14345 | 2150 ft | 132 kts | 268° |
| 2026-04-29 19:54 | 58.86216 | 4.12576 | 2156 ft | 134 kts | 268° |
| 2026-04-29 19:54 | 58.86371 | 4.10796 | 2153 ft | 135 kts | 272° |
| 2026-04-29 19:55 | 58.86584 | 4.09023 | 2156 ft | 136 kts | 274° |
| 2026-04-29 19:55 | 58.86801 | 4.07246 | 2157 ft | 136 kts | 274° |
| 2026-04-29 19:55 | 58.87019 | 4.05456 | 2162 ft | 138 kts | 273° |
| 2026-04-29 19:55 | 58.87239 | 4.03653 | 2164 ft | 138 kts | 274° |
| 2026-04-29 19:56 | 58.87454 | 4.01838 | 2164 ft | 139 kts | 274° |
| 2026-04-29 19:56 | 58.87662 | 4.00020 | 2162 ft | 139 kts | 273° |
| 2026-04-29 19:56 | 58.87867 | 3.98201 | 2179 ft | 137 kts | 274° |
| 2026-04-29 19:56 | 58.88072 | 3.96428 | 2246 ft | 134 kts | 274° |
| 2026-04-29 19:57 | 58.88280 | 3.94686 | 2308 ft | 130 kts | 273° |
| 2026-04-29 19:57 | 58.88423 | 3.93550 | 2378 ft | 127 kts | 273° |
| 2026-04-29 19:57 | 58.88711 | 3.91348 | 2400 ft | 129 kts | 273° |
| 2026-04-29 19:57 | 58.88932 | 3.89677 | 2442 ft | 127 kts | 273° |
| 2026-04-29 19:58 | 58.89082 | 3.88546 | 2437 ft | 130 kts | 273° |
| 2026-04-29 19:58 | 58.89306 | 3.86806 | 2378 ft | 136 kts | 274° |
| 2026-04-29 19:58 | 58.89528 | 3.84996 | 2309 ft | 140 kts | 274° |
| 2026-04-29 19:58 | 58.89728 | 3.83159 | 2248 ft | 142 kts | 269° |
| 2026-04-29 19:59 | 58.89834 | 3.81244 | 2168 ft | 145 kts | 266° |
| 2026-04-29 19:59 | 58.89928 | 3.79299 | 2114 ft | 144 kts | 265° |
| 2026-04-29 19:59 | 58.90019 | 3.77404 | 2137 ft | 140 kts | 265° |
| 2026-04-29 19:59 | 58.90137 | 3.75551 | 2139 ft | 135 kts | 268° |
| 2026-04-29 20:00 | 58.90258 | 3.73760 | 2052 ft | 142 kts | 263° |
| 2026-04-29 20:00 | 58.90225 | 3.71874 | 2081 ft | 137 kts | 252° |
| 2026-04-29 20:00 | 58.90070 | 3.70073 | 2102 ft | 135 kts | 258° |
| 2026-04-29 20:00 | 58.90153 | 3.68296 | 2157 ft | 131 kts | 265° |
| 2026-04-29 20:01 | 58.90271 | 3.66556 | 2201 ft | 130 kts | 266° |
| 2026-04-29 20:01 | 58.90397 | 3.64813 | 2228 ft | 131 kts | 266° |
| 2026-04-29 20:01 | 58.90522 | 3.63063 | 2242 ft | 132 kts | 266° |
| 2026-04-29 20:01 | 58.90646 | 3.61267 | 2188 ft | 138 kts | 266° |
| 2026-04-29 20:02 | 58.90763 | 3.59404 | 2130 ft | 140 kts | 263° |
| 2026-04-29 20:02 | 58.90746 | 3.57515 | 2107 ft | 141 kts | 252° |
| 2026-04-29 20:02 | 58.90615 | 3.55636 | 2089 ft | 141 kts | 252° |
| 2026-04-29 20:02 | 58.90523 | 3.54400 | 2087 ft | 140 kts | 251° |
| 2026-04-29 20:03 | 58.90348 | 3.51928 | 2087 ft | 138 kts | 252° |
| 2026-04-29 20:03 | 58.90227 | 3.50092 | 2087 ft | 137 kts | 252° |
| 2026-04-29 20:03 | 58.90111 | 3.48261 | 2088 ft | 137 kts | 252° |
| 2026-04-29 20:03 | 58.89992 | 3.46436 | 2087 ft | 137 kts | 252° |
| 2026-04-29 20:04 | 58.89874 | 3.44615 | 2087 ft | 136 kts | 253° |
| 2026-04-29 20:04 | 58.89762 | 3.42793 | 2088 ft | 136 kts | 253° |
| 2026-04-29 20:04 | 58.89648 | 3.40970 | 2087 ft | 137 kts | 252° |
| 2026-04-29 20:04 | 58.89545 | 3.39144 | 2087 ft | 137 kts | 253° |
| 2026-04-29 20:05 | 58.89442 | 3.37313 | 2085 ft | 137 kts | 253° |
| 2026-04-29 20:05 | 58.89339 | 3.35480 | 2085 ft | 137 kts | 253° |
| 2026-04-29 20:05 | 58.89239 | 3.33644 | 2084 ft | 137 kts | 253° |
| 2026-04-29 20:05 | 58.89133 | 3.31807 | 2085 ft | 137 kts | 253° |
| 2026-04-29 20:06 | 58.89023 | 3.29975 | 2088 ft | 137 kts | 253° |
| 2026-04-29 20:06 | 58.88919 | 3.28171 | 2088 ft | 137 kts | 253° |
| 2026-04-29 20:06 | 58.88820 | 3.26316 | 2086 ft | 137 kts | 253° |
| 2026-04-29 20:06 | 58.88720 | 3.24508 | 2085 ft | 137 kts | 253° |
| 2026-04-29 20:07 | 58.88616 | 3.22675 | 2086 ft | 137 kts | 253° |
| 2026-04-29 20:07 | 58.88513 | 3.20840 | 2087 ft | 137 kts | 253° |
| 2026-04-29 20:07 | 58.88409 | 3.19005 | 2086 ft | 137 kts | 253° |
| 2026-04-29 20:07 | 58.88305 | 3.17173 | 2087 ft | 137 kts | 253° |
| 2026-04-29 20:08 | 58.88210 | 3.15343 | 2087 ft | 137 kts | 253° |
| 2026-04-29 20:08 | 58.88155 | 3.14107 | 2087 ft | 136 kts | 253° |
| 2026-04-29 20:08 | 58.88052 | 3.11697 | 2087 ft | 136 kts | 253° |
| 2026-04-29 20:08 | 58.87976 | 3.09883 | 2087 ft | 136 kts | 253° |
| 2026-04-29 20:09 | 58.87901 | 3.08063 | 2087 ft | 136 kts | 253° |
| 2026-04-29 20:09 | 58.87827 | 3.06241 | 2085 ft | 136 kts | 253° |
| 2026-04-29 20:09 | 58.87752 | 3.04410 | 2087 ft | 137 kts | 253° |
| 2026-04-29 20:09 | 58.87674 | 3.02576 | 2086 ft | 137 kts | 253° |
| 2026-04-29 20:10 | 58.87596 | 3.00735 | 2081 ft | 137 kts | 253° |
| 2026-04-29 20:10 | 58.87517 | 2.98904 | 2085 ft | 136 kts | 253° |
| 2026-04-29 20:10 | 58.87440 | 2.97076 | 2086 ft | 136 kts | 253° |
| 2026-04-29 20:10 | 58.87362 | 2.95257 | 2086 ft | 136 kts | 253° |
| 2026-04-29 20:11 | 58.87285 | 2.93442 | 2090 ft | 135 kts | 253° |
| 2026-04-29 20:11 | 58.87209 | 2.91626 | 2088 ft | 136 kts | 253° |
| 2026-04-29 20:11 | 58.87134 | 2.89807 | 2086 ft | 136 kts | 253° |
| 2026-04-29 20:11 | 58.87059 | 2.87988 | 2088 ft | 136 kts | 253° |
| 2026-04-29 20:12 | 58.86984 | 2.86167 | 2087 ft | 136 kts | 253° |
| 2026-04-29 20:12 | 58.86909 | 2.84340 | 2088 ft | 137 kts | 253° |
| 2026-04-29 20:12 | 58.86830 | 2.82504 | 2087 ft | 138 kts | 253° |
| 2026-04-29 20:12 | 58.86747 | 2.80652 | 2084 ft | 139 kts | 253° |
| 2026-04-29 20:13 | 58.86661 | 2.78788 | 2083 ft | 139 kts | 253° |
| 2026-04-29 20:13 | 58.86573 | 2.76924 | 2082 ft | 140 kts | 253° |
| 2026-04-29 20:13 | 58.86485 | 2.75054 | 2084 ft | 140 kts | 253° |
| 2026-04-29 20:13 | 58.86398 | 2.73187 | 2084 ft | 140 kts | 253° |
| 2026-04-29 20:14 | 58.86310 | 2.71315 | 2084 ft | 140 kts | 253° |
| 2026-04-29 20:14 | 58.86223 | 2.69467 | 2086 ft | 140 kts | 253° |
| 2026-04-29 20:14 | 58.86135 | 2.67596 | 2086 ft | 140 kts | 253° |
| 2026-04-29 20:14 | 58.86045 | 2.65723 | 2087 ft | 140 kts | 253° |
| 2026-04-29 20:15 | 58.85956 | 2.63846 | 2084 ft | 140 kts | 253° |
| 2026-04-29 20:15 | 58.85866 | 2.61969 | 2087 ft | 140 kts | 253° |
| 2026-04-29 20:15 | 58.85776 | 2.60100 | 2087 ft | 140 kts | 253° |
| 2026-04-29 20:15 | 58.85687 | 2.58229 | 2087 ft | 140 kts | 253° |
| 2026-04-29 20:16 | 58.85598 | 2.56355 | 2087 ft | 140 kts | 253° |
| 2026-04-29 20:16 | 58.85508 | 2.54487 | 2086 ft | 140 kts | 253° |
| 2026-04-29 20:16 | 58.85420 | 2.52614 | 2087 ft | 140 kts | 252° |
| 2026-04-29 20:16 | 58.85351 | 2.50736 | 2086 ft | 141 kts | 253° |
| 2026-04-29 20:17 | 58.85286 | 2.48846 | 2088 ft | 141 kts | 253° |
| 2026-04-29 20:17 | 58.85216 | 2.46959 | 2086 ft | 141 kts | 253° |
| 2026-04-29 20:17 | 58.85149 | 2.45071 | 2083 ft | 141 kts | 253° |
| 2026-04-29 20:17 | 58.85088 | 2.43188 | 2083 ft | 140 kts | 253° |
| 2026-04-29 20:18 | 58.85028 | 2.41316 | 2085 ft | 139 kts | 253° |
| 2026-04-29 20:18 | 58.84969 | 2.39454 | 2086 ft | 139 kts | 253° |
| 2026-04-29 20:18 | 58.84911 | 2.37594 | 2087 ft | 139 kts | 253° |
| 2026-04-29 20:18 | 58.84854 | 2.35731 | 2087 ft | 139 kts | 253° |
| 2026-04-29 20:19 | 58.84795 | 2.33868 | 2082 ft | 139 kts | 253° |
| 2026-04-29 20:19 | 58.84735 | 2.32003 | 2083 ft | 140 kts | 253° |
| 2026-04-29 20:19 | 58.84672 | 2.30127 | 2084 ft | 140 kts | 253° |
| 2026-04-29 20:19 | 58.84607 | 2.28251 | 2083 ft | 140 kts | 253° |
| 2026-04-29 20:20 | 58.84543 | 2.26377 | 2084 ft | 140 kts | 253° |
| 2026-04-29 20:20 | 58.84618 | 2.24507 | 2068 ft | 142 kts | 273° |
| 2026-04-29 20:20 | 58.84931 | 2.22707 | 2089 ft | 141 kts | 276° |
| 2026-04-29 20:20 | 58.85257 | 2.20916 | 2086 ft | 141 kts | 276° |
| 2026-04-29 20:21 | 58.85611 | 2.19142 | 2083 ft | 142 kts | 281° |
| 2026-04-29 20:21 | 58.86016 | 2.17407 | 2085 ft | 142 kts | 281° |
| 2026-04-29 20:21 | 58.86430 | 2.15676 | 2086 ft | 142 kts | 281° |
| 2026-04-29 20:21 | 58.86845 | 2.13940 | 2087 ft | 143 kts | 281° |
| 2026-04-29 20:22 | 58.87261 | 2.12196 | 2088 ft | 143 kts | 281° |
| 2026-04-29 20:22 | 58.87675 | 2.10456 | 2086 ft | 143 kts | 281° |
| 2026-04-29 20:22 | 58.88084 | 2.08707 | 2073 ft | 142 kts | 281° |
| 2026-04-29 20:22 | 58.88493 | 2.06986 | 2017 ft | 140 kts | 281° |
| 2026-04-29 20:23 | 58.88898 | 2.05296 | 1944 ft | 137 kts | 279° |
| 2026-04-29 20:23 | 58.89307 | 2.03658 | 1846 ft | 134 kts | 281° |
| 2026-04-29 20:23 | 58.89712 | 2.02062 | 1747 ft | 131 kts | 280° |
| 2026-04-29 20:23 | 58.90117 | 2.00491 | 1653 ft | 130 kts | 280° |
| 2026-04-29 20:24 | 58.90520 | 1.98925 | 1550 ft | 130 kts | 280° |
| 2026-04-29 20:24 | 58.90925 | 1.97364 | 1453 ft | 129 kts | 280° |
| 2026-04-29 20:24 | 58.91326 | 1.95809 | 1356 ft | 129 kts | 280° |
| 2026-04-29 20:24 | 58.91725 | 1.94251 | 1258 ft | 129 kts | 280° |
| 2026-04-29 20:25 | 58.92121 | 1.92707 | 1156 ft | 128 kts | 280° |
| 2026-04-29 20:25 | 58.92519 | 1.91170 | 1064 ft | 127 kts | 280° |
| 2026-04-29 20:25 | 58.92924 | 1.89644 | 965 ft | 128 kts | 279° |
| 2026-04-29 20:25 | 58.93345 | 1.88160 | 879 ft | 127 kts | 277° |
| 2026-04-29 20:26 | 58.93616 | 1.86485 | 613 ft | 129 kts | 259° |
| 2026-04-29 20:26 | 58.93596 | 1.84910 | 508 ft | 109 kts | 232° |
| 2026-04-29 20:26 | 58.93316 | 1.83673 | 370 ft | 94 kts | 204° |
| 2026-04-29 20:26 | 58.92860 | 1.82911 | 401 ft | 81 kts | 181° |
| 2026-04-29 20:27 | 58.92341 | 1.82658 | 595 ft | 74 kts | 142° |
| 2026-04-29 20:27 | 58.92030 | 1.82872 | 674 ft | 68 kts | 105° |
| 2026-04-29 20:27 | 58.91958 | 1.83960 | 747 ft | 67 kts | 353° |
| 2026-04-29 20:27 | 58.92317 | 1.84463 | 729 ft | 61 kts | 233° |
| 2026-04-29 20:28 | 58.92561 | 1.84541 | 846 ft | 35 kts | 51° |
| 2026-04-29 20:28 | 58.93001 | 1.84608 | 971 ft | 83 kts | 341° |
| 2026-04-29 20:28 | 58.93542 | 1.84158 | 1195 ft | 105 kts | 311° |
| 2026-04-29 20:28 | 58.94147 | 1.82847 | 1019 ft | 148 kts | 295° |
| 2026-04-29 20:29 | 58.94630 | 1.81115 | 1294 ft | 143 kts | 279° |
| 2026-04-29 20:29 | 58.94882 | 1.79410 | 1770 ft | 130 kts | 267° |
| 2026-04-29 20:29 | 58.94889 | 1.77744 | 2275 ft | 115 kts | 240° |
| 2026-04-29 20:29 | 58.94379 | 1.76787 | 2809 ft | 102 kts | 180° |
| 2026-04-29 20:30 | 58.93591 | 1.76879 | 2732 ft | 129 kts | 156° |
| 2026-04-29 20:30 | 58.92716 | 1.77534 | 2446 ft | 135 kts | 139° |
| 2026-04-29 20:30 | 58.91998 | 1.78630 | 2186 ft | 129 kts | 122° |
| 2026-04-29 20:30 | 58.91535 | 1.80051 | 1919 ft | 125 kts | 95° |
| 2026-04-29 20:31 | 58.91420 | 1.81709 | 1591 ft | 126 kts | 71° |
| 2026-04-29 20:31 | 58.91760 | 1.82978 | 1592 ft | 97 kts | 1° |
| 2026-04-29 20:31 | 58.92344 | 1.83146 | 1593 ft | 84 kts | 301° |
| 2026-04-29 20:31 | 58.92685 | 1.82387 | 1659 ft | 75 kts | 232° |
| 2026-04-29 20:32 | 58.92481 | 1.81602 | 1737 ft | 60 kts | 153° |
| 2026-04-29 20:32 | 58.91970 | 1.81720 | 1499 ft | 95 kts | 137° |
| 2026-04-29 20:32 | 58.91409 | 1.82575 | 1275 ft | 108 kts | 112° |
| 2026-04-29 20:32 | 58.91202 | 1.83458 | 1165 ft | 113 kts | 90° |
| 2026-04-29 20:33 | 58.91323 | 1.85486 | 943 ft | 117 kts | 47° |
| 2026-04-29 20:33 | 58.91809 | 1.86631 | 893 ft | 109 kts | 17° |
| 2026-04-29 20:33 | 58.92480 | 1.87213 | 812 ft | 103 kts | 349° |
| 2026-04-29 20:33 | 58.93139 | 1.87145 | 824 ft | 92 kts | 306° |
| 2026-04-29 20:34 | 58.93645 | 1.86433 | 775 ft | 87 kts | 277° |
| 2026-04-29 20:34 | 58.93933 | 1.85458 | 707 ft | 84 kts | 253° |
| 2026-04-29 20:34 | 58.93946 | 1.84341 | 620 ft | 84 kts | 226° |
| 2026-04-29 20:34 | 58.93705 | 1.83329 | 552 ft | 82 kts | 204° |
| 2026-04-29 20:35 | 58.93296 | 1.82685 | 564 ft | 73 kts | 179° |
| 2026-04-29 20:35 | 58.92848 | 1.82433 | 633 ft | 63 kts | 142° |
| 2026-04-29 20:35 | 58.92463 | 1.82687 | 743 ft | 60 kts | 87° |
| 2026-04-29 20:35 | 58.92229 | 1.83307 | 780 ft | 52 kts | 52° |
| 2026-04-29 20:36 | 58.92199 | 1.83854 | 704 ft | 38 kts | 25° |
| 2026-04-29 20:36 | 58.92362 | 1.84274 | 535 ft | 40 kts | 23° |
| 2026-04-29 20:36 | 58.92568 | 1.84662 | 311 ft | 56 kts | 342° |
| 2026-04-29 20:36 | 58.92916 | 1.84536 | 283 ft | 43 kts | 226° |
| 2026-04-29 20:37 | 58.92960 | 1.84306 | 349 ft | 28 kts | 159° |
| 2026-04-29 20:37 | 58.92782 | 1.84104 | 435 ft | 28 kts | 131° |
| 2026-04-29 20:37 | 58.92629 | 1.84078 | 390 ft | 18 kts | 104° |
| 2026-04-29 20:37 | 58.92541 | 1.84220 | 289 ft | 16 kts | 97° |
| 2026-04-29 20:38 | 58.92490 | 1.84330 | 244 ft | 9 kts | 98° |
| 2026-04-29 20:38 | 58.92454 | 1.84417 | 225 ft | 6 kts | 95° |
| 2026-04-29 20:38 | 58.92435 | 1.84477 | 206 ft | 4 kts | 91° |
| 2026-04-29 20:38 | 58.92418 | 1.84525 | 182 ft | 2 kts | 89° |
| 2026-04-29 20:39 | 58.92412 | 1.84545 | 166 ft | 1 kts | 83° |
| 2026-04-29 20:39 | 58.92409 | 1.84553 | 163 ft | 1 kts | 77° |
| 2026-04-29 20:39 | 58.92408 | 1.84561 | 152 ft | 0 kts | 60° |
| 2026-04-29 20:39 | 58.92408 | 1.84559 | 152 ft | 0 kts | 28° |
| 2026-04-29 20:41 | 58.92407 | 1.84557 | 152 ft | 0 kts | 352° |
| 2026-04-29 20:47 | 58.92434 | 1.84568 | 227 ft | 20 kts | 328° |
| 2026-04-29 20:47 | 58.92663 | 1.85069 | 332 ft | 75 kts | 54° |
| 2026-04-29 20:47 | 58.92925 | 1.86173 | 476 ft | 96 kts | 56° |
| 2026-04-29 20:48 | 58.93258 | 1.87228 | 868 ft | 91 kts | 52° |
| 2026-04-29 20:48 | 58.93550 | 1.88321 | 1161 ft | 92 kts | 63° |
| 2026-04-29 20:48 | 58.93776 | 1.89492 | 1451 ft | 95 kts | 64° |
| 2026-04-29 20:48 | 58.94002 | 1.90707 | 1729 ft | 97 kts | 63° |
| 2026-04-29 20:49 | 58.94230 | 1.91937 | 2008 ft | 98 kts | 61° |
| 2026-04-29 20:49 | 58.94476 | 1.93187 | 2273 ft | 100 kts | 61° |
| 2026-04-29 20:49 | 58.94686 | 1.94477 | 2515 ft | 101 kts | 67° |
| 2026-04-29 20:49 | 58.94908 | 1.95763 | 2763 ft | 102 kts | 57° |
| 2026-04-29 20:50 | 58.95139 | 1.97130 | 2909 ft | 112 kts | 57° |
| 2026-04-29 20:50 | 58.95506 | 1.98527 | 3001 ft | 122 kts | 48° |
| 2026-04-29 20:50 | 58.95958 | 1.99990 | 3031 ft | 131 kts | 47° |
| 2026-04-29 20:50 | 58.96457 | 2.01510 | 3046 ft | 137 kts | 47° |
| 2026-04-29 20:51 | 58.96991 | 2.03080 | 3046 ft | 141 kts | 46° |
| 2026-04-29 20:51 | 58.97545 | 2.04664 | 3041 ft | 142 kts | 46° |
| 2026-04-29 20:51 | 58.98103 | 2.06254 | 3039 ft | 143 kts | 46° |
| 2026-04-29 20:51 | 58.98668 | 2.07847 | 3034 ft | 143 kts | 44° |
| 2026-04-29 20:52 | 58.99337 | 2.09273 | 3049 ft | 143 kts | 35° |
| 2026-04-29 20:52 | 59.00042 | 2.10650 | 3038 ft | 144 kts | 35° |
| 2026-04-29 20:52 | 59.00749 | 2.12026 | 3039 ft | 144 kts | 35° |
| 2026-04-29 20:52 | 59.01456 | 2.13404 | 3039 ft | 144 kts | 35° |
| 2026-04-29 20:53 | 59.02159 | 2.14793 | 3032 ft | 145 kts | 35° |
| 2026-04-29 20:53 | 59.02865 | 2.16194 | 3026 ft | 145 kts | 35° |
| 2026-04-29 20:53 | 59.03574 | 2.17599 | 3029 ft | 145 kts | 35° |
| 2026-04-29 20:53 | 59.04279 | 2.19001 | 3029 ft | 145 kts | 35° |
| 2026-04-29 20:54 | 59.05700 | 2.21816 | 3030 ft | 146 kts | 35° |
| 2026-04-29 20:54 | 59.06401 | 2.23201 | 3030 ft | 146 kts | 35° |
| 2026-04-29 20:54 | 59.07109 | 2.24611 | 3034 ft | 146 kts | 35° |
| 2026-04-29 20:55 | 59.07824 | 2.26025 | 3032 ft | 147 kts | 35° |
| 2026-04-29 20:55 | 59.08538 | 2.27438 | 3032 ft | 146 kts | 35° |
| 2026-04-29 20:55 | 59.09251 | 2.28851 | 3031 ft | 146 kts | 35° |
| 2026-04-29 20:55 | 59.09963 | 2.30261 | 3031 ft | 146 kts | 35° |
| 2026-04-29 20:56 | 59.10676 | 2.31671 | 3030 ft | 146 kts | 35° |
| 2026-04-29 20:56 | 59.11385 | 2.33077 | 3028 ft | 145 kts | 35° |
| 2026-04-29 20:56 | 59.12092 | 2.34480 | 3029 ft | 145 kts | 35° |
| 2026-04-29 20:56 | 59.12801 | 2.35891 | 3031 ft | 146 kts | 35° |
| 2026-04-29 20:57 | 59.13512 | 2.37297 | 3031 ft | 146 kts | 35° |
| 2026-04-29 20:57 | 59.14223 | 2.38708 | 3026 ft | 146 kts | 35° |
| 2026-04-29 20:57 | 59.14904 | 2.40176 | 3019 ft | 146 kts | 44° |
| 2026-04-29 20:57 | 59.15484 | 2.41813 | 3022 ft | 147 kts | 46° |
| 2026-04-29 20:58 | 59.16057 | 2.43461 | 3027 ft | 147 kts | 46° |
| 2026-04-29 20:58 | 59.16628 | 2.45108 | 3029 ft | 147 kts | 46° |
| 2026-04-29 20:58 | 59.17199 | 2.46755 | 3027 ft | 147 kts | 46° |
| 2026-04-29 20:58 | 59.17768 | 2.48399 | 3028 ft | 146 kts | 46° |
| 2026-04-29 20:59 | 59.18332 | 2.50040 | 3028 ft | 146 kts | 46° |
| 2026-04-29 20:59 | 59.18888 | 2.51690 | 3025 ft | 146 kts | 49° |
| 2026-04-29 20:59 | 59.19399 | 2.53399 | 3026 ft | 146 kts | 50° |
| 2026-04-29 20:59 | 59.19908 | 2.55113 | 3030 ft | 146 kts | 50° |
| 2026-04-29 21:00 | 59.20416 | 2.56821 | 3029 ft | 145 kts | 50° |
| 2026-04-29 21:00 | 59.20907 | 2.58541 | 3030 ft | 145 kts | 50° |
| 2026-04-29 21:00 | 59.21396 | 2.60258 | 3031 ft | 145 kts | 50° |
| 2026-04-29 21:00 | 59.21883 | 2.61974 | 3032 ft | 145 kts | 50° |
| 2026-04-29 21:01 | 59.22371 | 2.63689 | 3035 ft | 145 kts | 50° |
| 2026-04-29 21:01 | 59.22860 | 2.65402 | 3034 ft | 144 kts | 50° |
| 2026-04-29 21:01 | 59.23348 | 2.67118 | 3033 ft | 144 kts | 50° |
| 2026-04-29 21:01 | 59.23834 | 2.68830 | 3029 ft | 144 kts | 50° |
| 2026-04-29 21:02 | 59.24318 | 2.70542 | 3029 ft | 144 kts | 50° |
| 2026-04-29 21:02 | 59.24801 | 2.72252 | 3027 ft | 144 kts | 50° |
| 2026-04-29 21:02 | 59.25286 | 2.73968 | 3031 ft | 144 kts | 50° |
| 2026-04-29 21:02 | 59.25764 | 2.75657 | 3031 ft | 144 kts | 50° |
| 2026-04-29 21:03 | 59.26249 | 2.77368 | 3031 ft | 144 kts | 50° |
| 2026-04-29 21:03 | 59.26734 | 2.79081 | 3028 ft | 144 kts | 50° |
| 2026-04-29 21:03 | 59.27217 | 2.80794 | 3031 ft | 144 kts | 50° |
| 2026-04-29 21:03 | 59.27700 | 2.82508 | 3029 ft | 144 kts | 50° |
| 2026-04-29 21:04 | 59.28182 | 2.84218 | 3036 ft | 144 kts | 50° |
| 2026-04-29 21:04 | 59.28662 | 2.85930 | 3040 ft | 144 kts | 50° |
| 2026-04-29 21:04 | 59.29143 | 2.87657 | 3040 ft | 145 kts | 50° |
| 2026-04-29 21:04 | 59.29626 | 2.89400 | 3044 ft | 146 kts | 50° |
| 2026-04-29 21:05 | 59.30111 | 2.91148 | 3041 ft | 147 kts | 50° |
| 2026-04-29 21:05 | 59.30600 | 2.92901 | 3040 ft | 147 kts | 50° |
| 2026-04-29 21:05 | 59.31089 | 2.94653 | 3034 ft | 147 kts | 50° |
| 2026-04-29 21:05 | 59.31578 | 2.96408 | 3037 ft | 147 kts | 50° |
| 2026-04-29 21:06 | 59.32067 | 2.98165 | 3039 ft | 147 kts | 50° |
| 2026-04-29 21:06 | 59.32556 | 2.99923 | 3037 ft | 147 kts | 50° |
| 2026-04-29 21:06 | 59.33045 | 3.01682 | 3039 ft | 147 kts | 50° |
| 2026-04-29 21:06 | 59.33537 | 3.03441 | 3036 ft | 147 kts | 50° |
| 2026-04-29 21:07 | 59.34027 | 3.05195 | 3039 ft | 147 kts | 50° |
| 2026-04-29 21:07 | 59.34518 | 3.06950 | 3039 ft | 147 kts | 50° |
| 2026-04-29 21:07 | 59.35009 | 3.08708 | 3039 ft | 147 kts | 50° |
| 2026-04-29 21:07 | 59.35498 | 3.10464 | 3039 ft | 147 kts | 50° |
| 2026-04-29 21:08 | 59.36029 | 3.12170 | 3040 ft | 147 kts | 45° |
| 2026-04-29 21:08 | 59.36588 | 3.13843 | 3045 ft | 147 kts | 45° |
| 2026-04-29 21:08 | 59.37144 | 3.15499 | 3041 ft | 148 kts | 45° |
| 2026-04-29 21:08 | 59.37712 | 3.17180 | 3037 ft | 148 kts | 45° |
| 2026-04-29 21:09 | 59.38281 | 3.18855 | 3037 ft | 148 kts | 45° |
| 2026-04-29 21:09 | 59.38849 | 3.20537 | 3041 ft | 148 kts | 45° |
| 2026-04-29 21:09 | 59.39415 | 3.22220 | 3040 ft | 148 kts | 45° |
| 2026-04-29 21:09 | 59.39978 | 3.23905 | 3039 ft | 147 kts | 45° |
| 2026-04-29 21:10 | 59.40532 | 3.25592 | 3037 ft | 147 kts | 45° |
| 2026-04-29 21:10 | 59.41085 | 3.27280 | 3033 ft | 147 kts | 45° |
| 2026-04-29 21:10 | 59.41638 | 3.28965 | 3040 ft | 147 kts | 45° |
| 2026-04-29 21:10 | 59.42191 | 3.30651 | 3030 ft | 147 kts | 45° |
| 2026-04-29 21:11 | 59.42742 | 3.32335 | 3042 ft | 147 kts | 45° |
| 2026-04-29 21:11 | 59.43292 | 3.34018 | 3037 ft | 146 kts | 45° |
| 2026-04-29 21:11 | 59.43842 | 3.35704 | 3041 ft | 146 kts | 45° |
| 2026-04-29 21:11 | 59.44391 | 3.37388 | 3033 ft | 146 kts | 45° |
| 2026-04-29 21:12 | 59.44940 | 3.39075 | 3041 ft | 147 kts | 45° |
| 2026-04-29 21:12 | 59.45489 | 3.40759 | 3039 ft | 147 kts | 45° |
| 2026-04-29 21:12 | 59.46039 | 3.42446 | 3041 ft | 147 kts | 45° |
| 2026-04-29 21:12 | 59.46591 | 3.44134 | 3042 ft | 147 kts | 45° |
| 2026-04-29 21:13 | 59.47141 | 3.45822 | 3035 ft | 147 kts | 45° |
| 2026-04-29 21:13 | 59.47690 | 3.47510 | 3039 ft | 147 kts | 45° |
| 2026-04-29 21:13 | 59.48241 | 3.49200 | 3037 ft | 147 kts | 45° |
| 2026-04-29 21:13 | 59.48793 | 3.50891 | 3042 ft | 147 kts | 45° |
| 2026-04-29 21:14 | 59.49344 | 3.52577 | 3033 ft | 146 kts | 45° |
| 2026-04-29 21:14 | 59.49893 | 3.54263 | 3040 ft | 146 kts | 45° |
| 2026-04-29 21:14 | 59.50443 | 3.55942 | 3037 ft | 146 kts | 45° |
| 2026-04-29 21:14 | 59.51098 | 3.57444 | 3054 ft | 144 kts | 34° |
| 2026-04-29 21:15 | 59.51795 | 3.58869 | 3040 ft | 145 kts | 33° |
| 2026-04-29 21:15 | 59.52494 | 3.60297 | 3040 ft | 145 kts | 33° |
| 2026-04-29 21:15 | 59.53194 | 3.61725 | 3039 ft | 145 kts | 33° |
| 2026-04-29 21:15 | 59.53896 | 3.63154 | 3039 ft | 145 kts | 33° |
| 2026-04-29 21:16 | 59.54601 | 3.64589 | 3047 ft | 146 kts | 33° |
| 2026-04-29 21:16 | 59.55310 | 3.66026 | 3046 ft | 146 kts | 33° |
| 2026-04-29 21:16 | 59.56024 | 3.67462 | 3039 ft | 147 kts | 33° |
| 2026-04-29 21:16 | 59.56739 | 3.68897 | 3036 ft | 147 kts | 33° |
| 2026-04-29 21:17 | 59.57452 | 3.70336 | 3041 ft | 147 kts | 33° |
| 2026-04-29 21:17 | 59.58158 | 3.71759 | 3036 ft | 147 kts | 33° |
| 2026-04-29 21:17 | 59.58884 | 3.73219 | 3036 ft | 147 kts | 33° |
| 2026-04-29 21:17 | 59.59591 | 3.74636 | 3036 ft | 147 kts | 33° |
| 2026-04-29 21:18 | 59.60306 | 3.76070 | 3034 ft | 147 kts | 33° |
| 2026-04-29 21:18 | 59.61018 | 3.77510 | 3039 ft | 146 kts | 33° |
| 2026-04-29 21:18 | 59.61730 | 3.78947 | 3034 ft | 146 kts | 33° |
| 2026-04-29 21:18 | 59.62441 | 3.80386 | 3039 ft | 146 kts | 33° |
| 2026-04-29 21:19 | 59.63150 | 3.81824 | 3040 ft | 146 kts | 33° |
| 2026-04-29 21:19 | 59.63861 | 3.83265 | 3040 ft | 146 kts | 33° |
| 2026-04-29 21:19 | 59.64570 | 3.84704 | 3041 ft | 146 kts | 33° |
| 2026-04-29 21:19 | 59.65281 | 3.86146 | 3040 ft | 146 kts | 33° |
| 2026-04-29 21:20 | 59.65990 | 3.87585 | 3041 ft | 146 kts | 33° |
| 2026-04-29 21:20 | 59.66700 | 3.89027 | 3036 ft | 146 kts | 33° |
| 2026-04-29 21:20 | 59.67412 | 3.90473 | 3040 ft | 146 kts | 33° |
| 2026-04-29 21:20 | 59.68120 | 3.91915 | 3040 ft | 146 kts | 33° |
| 2026-04-29 21:21 | 59.68827 | 3.93359 | 3040 ft | 146 kts | 33° |
| 2026-04-29 21:21 | 59.69530 | 3.94807 | 3036 ft | 146 kts | 33° |
| 2026-04-29 21:21 | 59.70233 | 3.96250 | 3038 ft | 145 kts | 33° |
| 2026-04-29 21:21 | 59.70936 | 3.97687 | 3041 ft | 145 kts | 33° |
| 2026-04-29 21:22 | 59.71635 | 3.99127 | 3040 ft | 145 kts | 33° |
| 2026-04-29 21:22 | 59.72333 | 4.00572 | 3036 ft | 145 kts | 34° |
| 2026-04-29 21:22 | 59.73029 | 4.02010 | 3035 ft | 145 kts | 34° |
| 2026-04-29 21:22 | 59.73664 | 4.03563 | 3030 ft | 145 kts | 42° |
| 2026-04-29 21:23 | 59.74250 | 4.05205 | 3031 ft | 146 kts | 42° |
| 2026-04-29 21:23 | 59.74830 | 4.06854 | 3032 ft | 146 kts | 43° |
| 2026-04-29 21:23 | 59.75414 | 4.08504 | 3036 ft | 146 kts | 42° |
| 2026-04-29 21:23 | 59.75998 | 4.10149 | 3040 ft | 146 kts | 43° |
| 2026-04-29 21:24 | 59.76581 | 4.11791 | 3039 ft | 145 kts | 42° |
| 2026-04-29 21:24 | 59.77109 | 4.13506 | 3032 ft | 146 kts | 49° |
| 2026-04-29 21:24 | 59.77590 | 4.15283 | 3034 ft | 146 kts | 49° |
| 2026-04-29 21:24 | 59.78070 | 4.17065 | 3038 ft | 147 kts | 50° |
| 2026-04-29 21:25 | 59.78552 | 4.18843 | 3038 ft | 146 kts | 49° |
| 2026-04-29 21:25 | 59.79033 | 4.20626 | 3037 ft | 147 kts | 50° |
| 2026-04-29 21:25 | 59.79515 | 4.22415 | 3037 ft | 147 kts | 50° |
| 2026-04-29 21:25 | 59.79996 | 4.24198 | 3039 ft | 147 kts | 49° |
| 2026-04-29 21:26 | 59.80478 | 4.25981 | 3037 ft | 146 kts | 50° |
| 2026-04-29 21:26 | 59.80857 | 4.27265 | 2368 ft | 45 kts | 89° |
| 2026-04-29 21:26 | 59.80990 | 4.28004 | 1732 ft | 67 kts | 20° |